sensor_id;sensor_type;location;lat;lon;timestamp;P1;P2;P0
55591;PMS5003;41454;53.396;-1.510;2022-12-07T00:00:49;5;5;
55591;PMS5003;41454;53.396;-1.510;2022-12-07T00:03:17;5;5;
55591;PMS5003;41454;53.396;-1.510;2022-12-07T00:05:44;3;3;
55591;PMS5003;41454;53.396;-1.510;2022-12-07T00:08:11;3;3;
55591;PMS5003;41454;53.396;-1.510;2022-12-07T00:10:38;3;3;
55591;PMS5003;41454;53.396;-1.510;2022-12-07T00:13:06;3;3;
55591;PMS5003;41454;53.396;-1.510;2022-12-07T00:15:33;5;5;
55591;PMS5003;41454;53.396;-1.510;2022-12-07T00:18:01;3;3;
55591;PMS5003;41454;53.396;-1.510;2022-12-07T00:20:28;5;4;
55591;PMS5003;41454;53.396;-1.510;2022-12-07T00:22:55;6;5;
55591;PMS5003;41454;53.396;-1.510;2022-12-07T00:25:22;3;2;
55591;PMS5003;41454;53.396;-1.510;2022-12-07T00:27:50;3;3;
55591;PMS5003;41454;53.396;-1.510;2022-12-07T00:30:18;5;4;
55591;PMS5003;41454;53.396;-1.510;2022-12-07T00:32:46;3;3;
55591;PMS5003;41454;53.396;-1.510;2022-12-07T00:35:13;3;3;
55591;PMS5003;41454;53.396;-1.510;2022-12-07T00:37:40;5;5;
55591;PMS5003;41454;53.396;-1.510;2022-12-07T00:40:08;4;3;
55591;PMS5003;41454;53.396;-1.510;2022-12-07T00:42:36;3;3;
55591;PMS5003;41454;53.396;-1.510;2022-12-07T00:45:02;5;4;
55591;PMS5003;41454;53.396;-1.510;2022-12-07T00:47:30;4;2;
55591;PMS5003;41454;53.396;-1.510;2022-12-07T00:49:57;4;2;
55591;PMS5003;41454;53.396;-1.510;2022-12-07T00:52:24;3;2;
55591;PMS5003;41454;53.396;-1.510;2022-12-07T00:54:52;3;2;
55591;PMS5003;41454;53.396;-1.510;2022-12-07T00:57:19;3;3;
55591;PMS5003;41454;53.396;-1.510;2022-12-07T00:59:46;3;3;
55591;PMS5003;41454;53.396;-1.510;2022-12-07T01:02:15;3;3;
55591;PMS5003;41454;53.396;-1.510;2022-12-07T01:04:42;4;4;
55591;PMS5003;41454;53.396;-1.510;2022-12-07T01:07:09;2;2;
55591;PMS5003;41454;53.396;-1.510;2022-12-07T01:09:36;2;2;
55591;PMS5003;41454;53.396;-1.510;2022-12-07T01:12:02;2;2;
55591;PMS5003;41454;53.396;-1.510;2022-12-07T01:14:30;5;3;
55591;PMS5003;41454;53.396;-1.510;2022-12-07T01:16:57;5;3;
55591;PMS5003;41454;53.396;-1.510;2022-12-07T01:19:24;2;2;
55591;PMS5003;41454;53.396;-1.510;2022-12-07T01:21:51;3;2;
55591;PMS5003;41454;53.396;-1.510;2022-12-07T01:24:17;2;2;
55591;PMS5003;41454;53.396;-1.510;2022-12-07T01:26:44;3;3;
55591;PMS5003;41454;53.396;-1.510;2022-12-07T01:29:11;3;3;
55591;PMS5003;41454;53.396;-1.510;2022-12-07T01:31:38;3;3;
55591;PMS5003;41454;53.396;-1.510;2022-12-07T01:34:05;2;2;
55591;PMS5003;41454;53.396;-1.510;2022-12-07T01:36:34;2;2;
55591;PMS5003;41454;53.396;-1.510;2022-12-07T01:39:03;2;2;
55591;PMS5003;41454;53.396;-1.510;2022-12-07T01:41:32;3;3;
55591;PMS5003;41454;53.396;-1.510;2022-12-07T01:44:10;2;2;
55591;PMS5003;41454;53.396;-1.510;2022-12-07T01:46:43;4;3;
55591;PMS5003;41454;53.396;-1.510;2022-12-07T01:49:13;2;1;
55591;PMS5003;41454;53.396;-1.510;2022-12-07T01:51:45;3;3;
55591;PMS5003;41454;53.396;-1.510;2022-12-07T01:54:14;1;1;
55591;PMS5003;41454;53.396;-1.510;2022-12-07T01:56:43;3;3;
55591;PMS5003;41454;53.396;-1.510;2022-12-07T01:59:15;2;2;
55591;PMS5003;41454;53.396;-1.510;2022-12-07T02:01:44;1;1;
55591;PMS5003;41454;53.396;-1.510;2022-12-07T02:04:11;1;1;
55591;PMS5003;41454;53.396;-1.510;2022-12-07T02:06:38;1;1;
55591;PMS5003;41454;53.396;-1.510;2022-12-07T02:09:07;2;2;
55591;PMS5003;41454;53.396;-1.510;2022-12-07T02:11:33;2;1;
55591;PMS5003;41454;53.396;-1.510;2022-12-07T02:14:01;1;1;
55591;PMS5003;41454;53.396;-1.510;2022-12-07T02:16:31;1;1;
55591;PMS5003;41454;53.396;-1.510;2022-12-07T02:19:07;1;1;
55591;PMS5003;41454;53.396;-1.510;2022-12-07T02:22:09;1;1;
55591;PMS5003;41454;53.396;-1.510;2022-12-07T02:24:53;1;1;
55591;PMS5003;41454;53.396;-1.510;2022-12-07T02:27:28;1;1;
55591;PMS5003;41454;53.396;-1.510;2022-12-07T02:30:05;2;1;
55591;PMS5003;41454;53.396;-1.510;2022-12-07T02:32:40;1;1;
55591;PMS5003;41454;53.396;-1.510;2022-12-07T02:35:15;1;1;
55591;PMS5003;41454;53.396;-1.510;2022-12-07T02:37:49;2;2;
55591;PMS5003;41454;53.396;-1.510;2022-12-07T02:40:27;1;1;
55591;PMS5003;41454;53.396;-1.510;2022-12-07T02:43:01;1;1;
55591;PMS5003;41454;53.396;-1.510;2022-12-07T02:45:34;1;1;
55591;PMS5003;41454;53.396;-1.510;2022-12-07T02:48:04;1;1;
55591;PMS5003;41454;53.396;-1.510;2022-12-07T02:50:33;1;1;
55591;PMS5003;41454;53.396;-1.510;2022-12-07T02:53:01;1;1;
55591;PMS5003;41454;53.396;-1.510;2022-12-07T02:55:29;3;3;
55591;PMS5003;41454;53.396;-1.510;2022-12-07T02:58:13;6;3;
55591;PMS5003;41454;53.396;-1.510;2022-12-07T03:00:52;4;4;
55591;PMS5003;41454;53.396;-1.510;2022-12-07T03:03:30;1;1;
55591;PMS5003;41454;53.396;-1.510;2022-12-07T03:06:01;4;1;
55591;PMS5003;41454;53.396;-1.510;2022-12-07T03:08:38;1;1;
55591;PMS5003;41454;53.396;-1.510;2022-12-07T03:11:14;2;1;
55591;PMS5003;41454;53.396;-1.510;2022-12-07T03:13:49;1;1;
55591;PMS5003;41454;53.396;-1.510;2022-12-07T03:16:26;1;1;
55591;PMS5003;41454;53.396;-1.510;2022-12-07T03:18:58;1;1;
55591;PMS5003;41454;53.396;-1.510;2022-12-07T03:21:30;1;1;
55591;PMS5003;41454;53.396;-1.510;2022-12-07T03:24:02;2;2;
55591;PMS5003;41454;53.396;-1.510;2022-12-07T03:26:35;1;1;
55591;PMS5003;41454;53.396;-1.510;2022-12-07T03:29:07;2;1;
55591;PMS5003;41454;53.396;-1.510;2022-12-07T03:31:51;2;2;
55591;PMS5003;41454;53.396;-1.510;2022-12-07T03:34:26;1;1;
55591;PMS5003;41454;53.396;-1.510;2022-12-07T03:36:59;1;1;
55591;PMS5003;41454;53.396;-1.510;2022-12-07T03:39:31;0;0;
55591;PMS5003;41454;53.396;-1.510;2022-12-07T03:42:05;1;1;
55591;PMS5003;41454;53.396;-1.510;2022-12-07T03:44:35;2;2;
55591;PMS5003;41454;53.396;-1.510;2022-12-07T03:47:05;2;1;
55591;PMS5003;41454;53.396;-1.510;2022-12-07T03:49:40;1;1;
55591;PMS5003;41454;53.396;-1.510;2022-12-07T03:52:12;3;2;
55591;PMS5003;41454;53.396;-1.510;2022-12-07T03:54:45;2;2;
55591;PMS5003;41454;53.396;-1.510;2022-12-07T03:57:18;1;1;
55591;PMS5003;41454;53.396;-1.510;2022-12-07T03:59:47;1;1;
55591;PMS5003;41454;53.396;-1.510;2022-12-07T04:02:15;1;1;
55591;PMS5003;41454;53.396;-1.510;2022-12-07T04:04:42;1;1;
55591;PMS5003;41454;53.396;-1.510;2022-12-07T04:07:10;0;0;
55591;PMS5003;41454;53.396;-1.510;2022-12-07T04:09:38;1;1;
55591;PMS5003;41454;53.396;-1.510;2022-12-07T04:12:05;0;0;
55591;PMS5003;41454;53.396;-1.510;2022-12-07T04:14:33;0;0;
55591;PMS5003;41454;53.396;-1.510;2022-12-07T04:17:00;2;1;
55591;PMS5003;41454;53.396;-1.510;2022-12-07T04:19:28;1;1;
55591;PMS5003;41454;53.396;-1.510;2022-12-07T04:21:58;1;1;
55591;PMS5003;41454;53.396;-1.510;2022-12-07T04:24:27;1;1;
55591;PMS5003;41454;53.396;-1.510;2022-12-07T04:26:54;1;1;
55591;PMS5003;41454;53.396;-1.510;2022-12-07T04:29:22;2;2;
55591;PMS5003;41454;53.396;-1.510;2022-12-07T04:31:49;1;1;
55591;PMS5003;41454;53.396;-1.510;2022-12-07T04:34:17;1;1;
55591;PMS5003;41454;53.396;-1.510;2022-12-07T04:36:46;2;2;
55591;PMS5003;41454;53.396;-1.510;2022-12-07T04:39:17;2;2;
55591;PMS5003;41454;53.396;-1.510;2022-12-07T04:41:46;3;2;
55591;PMS5003;41454;53.396;-1.510;2022-12-07T04:44:14;1;1;
55591;PMS5003;41454;53.396;-1.510;2022-12-07T04:46:42;2;2;
55591;PMS5003;41454;53.396;-1.510;2022-12-07T04:49:09;1;1;
55591;PMS5003;41454;53.396;-1.510;2022-12-07T04:51:37;1;1;
55591;PMS5003;41454;53.396;-1.510;2022-12-07T04:54:05;4;1;
55591;PMS5003;41454;53.396;-1.510;2022-12-07T04:56:32;1;1;
55591;PMS5003;41454;53.396;-1.510;2022-12-07T04:58:59;2;1;
55591;PMS5003;41454;53.396;-1.510;2022-12-07T05:01:27;0;0;
55591;PMS5003;41454;53.396;-1.510;2022-12-07T05:03:55;1;1;
55591;PMS5003;41454;53.396;-1.510;2022-12-07T05:06:22;0;0;
55591;PMS5003;41454;53.396;-1.510;2022-12-07T05:08:50;1;1;
55591;PMS5003;41454;53.396;-1.510;2022-12-07T05:11:17;1;1;
55591;PMS5003;41454;53.396;-1.510;2022-12-07T05:13:45;2;0;
55591;PMS5003;41454;53.396;-1.510;2022-12-07T05:16:12;1;1;
55591;PMS5003;41454;53.396;-1.510;2022-12-07T05:18:38;1;1;
55591;PMS5003;41454;53.396;-1.510;2022-12-07T05:21:05;2;2;
55591;PMS5003;41454;53.396;-1.510;2022-12-07T05:23:32;1;1;
55591;PMS5003;41454;53.396;-1.510;2022-12-07T05:25:59;2;2;
55591;PMS5003;41454;53.396;-1.510;2022-12-07T05:28:26;1;1;
55591;PMS5003;41454;53.396;-1.510;2022-12-07T05:30:53;1;1;
55591;PMS5003;41454;53.396;-1.510;2022-12-07T05:33:20;1;1;
55591;PMS5003;41454;53.396;-1.510;2022-12-07T05:35:46;0;0;
55591;PMS5003;41454;53.396;-1.510;2022-12-07T05:38:13;4;3;
55591;PMS5003;41454;53.396;-1.510;2022-12-07T05:40:40;2;1;
55591;PMS5003;41454;53.396;-1.510;2022-12-07T05:43:07;1;1;
55591;PMS5003;41454;53.396;-1.510;2022-12-07T05:45:35;2;2;
55591;PMS5003;41454;53.396;-1.510;2022-12-07T05:48:03;1;1;
55591;PMS5003;41454;53.396;-1.510;2022-12-07T05:50:31;1;1;
55591;PMS5003;41454;53.396;-1.510;2022-12-07T05:52:59;2;2;
55591;PMS5003;41454;53.396;-1.510;2022-12-07T05:55:26;0;0;
55591;PMS5003;41454;53.396;-1.510;2022-12-07T05:57:54;1;1;
55591;PMS5003;41454;53.396;-1.510;2022-12-07T06:00:21;1;1;
55591;PMS5003;41454;53.396;-1.510;2022-12-07T06:02:49;2;2;
55591;PMS5003;41454;53.396;-1.510;2022-12-07T06:05:16;1;1;
55591;PMS5003;41454;53.396;-1.510;2022-12-07T06:07:44;1;1;
55591;PMS5003;41454;53.396;-1.510;2022-12-07T06:10:11;1;1;
55591;PMS5003;41454;53.396;-1.510;2022-12-07T06:12:38;1;1;
55591;PMS5003;41454;53.396;-1.510;2022-12-07T06:15:05;4;2;
55591;PMS5003;41454;53.396;-1.510;2022-12-07T06:17:33;1;1;
55591;PMS5003;41454;53.396;-1.510;2022-12-07T06:19:59;1;1;
55591;PMS5003;41454;53.396;-1.510;2022-12-07T06:22:27;1;1;
55591;PMS5003;41454;53.396;-1.510;2022-12-07T06:24:55;1;1;
55591;PMS5003;41454;53.396;-1.510;2022-12-07T06:27:22;3;2;
55591;PMS5003;41454;53.396;-1.510;2022-12-07T06:29:49;1;1;
55591;PMS5003;41454;53.396;-1.510;2022-12-07T06:32:16;1;1;
55591;PMS5003;41454;53.396;-1.510;2022-12-07T06:34:43;1;1;
55591;PMS5003;41454;53.396;-1.510;2022-12-07T06:37:10;2;2;
55591;PMS5003;41454;53.396;-1.510;2022-12-07T06:39:38;1;1;
55591;PMS5003;41454;53.396;-1.510;2022-12-07T06:42:05;1;1;
55591;PMS5003;41454;53.396;-1.510;2022-12-07T06:44:32;3;1;
55591;PMS5003;41454;53.396;-1.510;2022-12-07T06:46:59;3;3;
55591;PMS5003;41454;53.396;-1.510;2022-12-07T06:49:26;2;2;
55591;PMS5003;41454;53.396;-1.510;2022-12-07T06:51:52;1;1;
55591;PMS5003;41454;53.396;-1.510;2022-12-07T06:54:20;2;2;
55591;PMS5003;41454;53.396;-1.510;2022-12-07T06:56:47;1;1;
55591;PMS5003;41454;53.396;-1.510;2022-12-07T06:59:14;2;1;
55591;PMS5003;41454;53.396;-1.510;2022-12-07T07:01:42;3;2;
55591;PMS5003;41454;53.396;-1.510;2022-12-07T07:04:09;1;1;
55591;PMS5003;41454;53.396;-1.510;2022-12-07T07:06:36;2;2;
55591;PMS5003;41454;53.396;-1.510;2022-12-07T07:09:03;2;1;
55591;PMS5003;41454;53.396;-1.510;2022-12-07T07:11:31;1;1;
55591;PMS5003;41454;53.396;-1.510;2022-12-07T07:13:58;3;3;
55591;PMS5003;41454;53.396;-1.510;2022-12-07T07:16:26;1;1;
55591;PMS5003;41454;53.396;-1.510;2022-12-07T07:18:52;2;2;
55591;PMS5003;41454;53.396;-1.510;2022-12-07T07:21:19;2;2;
55591;PMS5003;41454;53.396;-1.510;2022-12-07T07:23:46;1;1;
55591;PMS5003;41454;53.396;-1.510;2022-12-07T07:26:13;1;1;
55591;PMS5003;41454;53.396;-1.510;2022-12-07T07:28:40;1;1;
55591;PMS5003;41454;53.396;-1.510;2022-12-07T07:31:08;3;3;
55591;PMS5003;41454;53.396;-1.510;2022-12-07T07:33:36;5;3;
55591;PMS5003;41454;53.396;-1.510;2022-12-07T07:36:03;2;2;
55591;PMS5003;41454;53.396;-1.510;2022-12-07T07:38:32;2;2;
55591;PMS5003;41454;53.396;-1.510;2022-12-07T07:40:59;2;2;
55591;PMS5003;41454;53.396;-1.510;2022-12-07T07:43:26;2;2;
55591;PMS5003;41454;53.396;-1.510;2022-12-07T07:45:53;1;1;
55591;PMS5003;41454;53.396;-1.510;2022-12-07T07:48:21;2;2;
55591;PMS5003;41454;53.396;-1.510;2022-12-07T07:50:48;3;2;
55591;PMS5003;41454;53.396;-1.510;2022-12-07T07:53:15;2;2;
55591;PMS5003;41454;53.396;-1.510;2022-12-07T07:55:49;2;1;
55591;PMS5003;41454;53.396;-1.510;2022-12-07T07:58:17;4;2;
55591;PMS5003;41454;53.396;-1.510;2022-12-07T08:00:44;2;1;
55591;PMS5003;41454;53.396;-1.510;2022-12-07T08:03:11;2;2;
55591;PMS5003;41454;53.396;-1.510;2022-12-07T08:05:38;2;2;
55591;PMS5003;41454;53.396;-1.510;2022-12-07T08:08:05;4;1;
55591;PMS5003;41454;53.396;-1.510;2022-12-07T08:10:32;2;2;
55591;PMS5003;41454;53.396;-1.510;2022-12-07T08:13:00;1;1;
55591;PMS5003;41454;53.396;-1.510;2022-12-07T08:15:28;2;2;
55591;PMS5003;41454;53.396;-1.510;2022-12-07T08:17:56;3;3;
55591;PMS5003;41454;53.396;-1.510;2022-12-07T08:20:24;2;2;
55591;PMS5003;41454;53.396;-1.510;2022-12-07T08:22:52;2;2;
55591;PMS5003;41454;53.396;-1.510;2022-12-07T08:25:19;2;2;
55591;PMS5003;41454;53.396;-1.510;2022-12-07T08:27:46;1;1;
55591;PMS5003;41454;53.396;-1.510;2022-12-07T08:30:14;1;1;
55591;PMS5003;41454;53.396;-1.510;2022-12-07T08:32:41;2;2;
55591;PMS5003;41454;53.396;-1.510;2022-12-07T08:35:11;5;5;
55591;PMS5003;41454;53.396;-1.510;2022-12-07T08:37:39;4;4;
55591;PMS5003;41454;53.396;-1.510;2022-12-07T08:40:07;1;1;
55591;PMS5003;41454;53.396;-1.510;2022-12-07T08:42:35;4;2;
55591;PMS5003;41454;53.396;-1.510;2022-12-07T08:45:02;5;4;
55591;PMS5003;41454;53.396;-1.510;2022-12-07T08:47:32;6;6;
55591;PMS5003;41454;53.396;-1.510;2022-12-07T08:50:00;2;2;
55591;PMS5003;41454;53.396;-1.510;2022-12-07T08:52:28;3;2;
55591;PMS5003;41454;53.396;-1.510;2022-12-07T08:54:56;2;2;
55591;PMS5003;41454;53.396;-1.510;2022-12-07T08:57:25;3;3;
55591;PMS5003;41454;53.396;-1.510;2022-12-07T08:59:54;5;4;
55591;PMS5003;41454;53.396;-1.510;2022-12-07T09:02:22;2;2;
55591;PMS5003;41454;53.396;-1.510;2022-12-07T09:04:49;2;2;
55591;PMS5003;41454;53.396;-1.510;2022-12-07T09:07:16;2;2;
55591;PMS5003;41454;53.396;-1.510;2022-12-07T09:09:44;1;1;
55591;PMS5003;41454;53.396;-1.510;2022-12-07T09:12:10;3;3;
55591;PMS5003;41454;53.396;-1.510;2022-12-07T09:14:37;2;2;
55591;PMS5003;41454;53.396;-1.510;2022-12-07T09:17:05;3;3;
55591;PMS5003;41454;53.396;-1.510;2022-12-07T09:19:33;4;3;
55591;PMS5003;41454;53.396;-1.510;2022-12-07T09:22:01;2;2;
55591;PMS5003;41454;53.396;-1.510;2022-12-07T09:24:28;4;4;
55591;PMS5003;41454;53.396;-1.510;2022-12-07T09:26:56;2;2;
55591;PMS5003;41454;53.396;-1.510;2022-12-07T09:29:24;2;2;
55591;PMS5003;41454;53.396;-1.510;2022-12-07T09:31:51;2;2;
55591;PMS5003;41454;53.396;-1.510;2022-12-07T09:34:19;2;2;
55591;PMS5003;41454;53.396;-1.510;2022-12-07T09:36:46;4;4;
55591;PMS5003;41454;53.396;-1.510;2022-12-07T09:39:14;6;4;
55591;PMS5003;41454;53.396;-1.510;2022-12-07T09:41:41;4;4;
55591;PMS5003;41454;53.396;-1.510;2022-12-07T09:44:12;7;7;
55591;PMS5003;41454;53.396;-1.510;2022-12-07T09:46:43;4;4;
55591;PMS5003;41454;53.396;-1.510;2022-12-07T09:49:12;1;1;
55591;PMS5003;41454;53.396;-1.510;2022-12-07T09:51:44;8;5;
55591;PMS5003;41454;53.396;-1.510;2022-12-07T09:54:12;6;6;
55591;PMS5003;41454;53.396;-1.510;2022-12-07T09:56:42;4;4;
55591;PMS5003;41454;53.396;-1.510;2022-12-07T09:59:12;4;4;
55591;PMS5003;41454;53.396;-1.510;2022-12-07T10:01:42;4;3;
55591;PMS5003;41454;53.396;-1.510;2022-12-07T10:04:12;3;2;
55591;PMS5003;41454;53.396;-1.510;2022-12-07T10:06:43;2;2;
55591;PMS5003;41454;53.396;-1.510;2022-12-07T10:09:11;5;4;
55591;PMS5003;41454;53.396;-1.510;2022-12-07T10:12:12;2;2;
55591;PMS5003;41454;53.396;-1.510;2022-12-07T10:14:40;1;1;
55591;PMS5003;41454;53.396;-1.510;2022-12-07T10:17:29;3;3;
55591;PMS5003;41454;53.396;-1.510;2022-12-07T10:20:31;2;2;
55591;PMS5003;41454;53.396;-1.510;2022-12-07T10:23:00;2;2;
55591;PMS5003;41454;53.396;-1.510;2022-12-07T10:25:30;2;2;
55591;PMS5003;41454;53.396;-1.510;2022-12-07T10:28:00;3;3;
55591;PMS5003;41454;53.396;-1.510;2022-12-07T10:30:45;2;2;
55591;PMS5003;41454;53.396;-1.510;2022-12-07T10:33:27;2;2;
55591;PMS5003;41454;53.396;-1.510;2022-12-07T10:35:56;3;3;
55591;PMS5003;41454;53.396;-1.510;2022-12-07T10:38:25;1;1;
55591;PMS5003;41454;53.396;-1.510;2022-12-07T10:41:03;2;2;
55591;PMS5003;41454;53.396;-1.510;2022-12-07T10:43:32;3;3;
55591;PMS5003;41454;53.396;-1.510;2022-12-07T10:46:06;2;2;
55591;PMS5003;41454;53.396;-1.510;2022-12-07T10:48:50;1;1;
55591;PMS5003;41454;53.396;-1.510;2022-12-07T10:51:32;2;2;
55591;PMS5003;41454;53.396;-1.510;2022-12-07T10:54:10;2;2;
55591;PMS5003;41454;53.396;-1.510;2022-12-07T10:56:45;3;3;
55591;PMS5003;41454;53.396;-1.510;2022-12-07T10:59:27;2;2;
55591;PMS5003;41454;53.396;-1.510;2022-12-07T11:02:12;3;2;
55591;PMS5003;41454;53.396;-1.510;2022-12-07T11:04:56;2;2;
55591;PMS5003;41454;53.396;-1.510;2022-12-07T11:07:36;3;2;
55591;PMS5003;41454;53.396;-1.510;2022-12-07T11:10:11;2;2;
55591;PMS5003;41454;53.396;-1.510;2022-12-07T11:12:49;3;3;
55591;PMS5003;41454;53.396;-1.510;2022-12-07T11:15:24;4;4;
55591;PMS5003;41454;53.396;-1.510;2022-12-07T11:17:58;3;3;
55591;PMS5003;41454;53.396;-1.510;2022-12-07T11:20:37;3;2;
55591;PMS5003;41454;53.396;-1.510;2022-12-07T11:23:13;2;2;
55591;PMS5003;41454;53.396;-1.510;2022-12-07T11:25:49;1;1;
55591;PMS5003;41454;53.396;-1.510;2022-12-07T11:28:29;3;3;
55591;PMS5003;41454;53.396;-1.510;2022-12-07T11:31:12;1;1;
55591;PMS5003;41454;53.396;-1.510;2022-12-07T11:33:45;1;1;
55591;PMS5003;41454;53.396;-1.510;2022-12-07T11:36:22;2;2;
55591;PMS5003;41454;53.396;-1.510;2022-12-07T11:39:00;1;1;
55591;PMS5003;41454;53.396;-1.510;2022-12-07T11:41:31;1;1;
55591;PMS5003;41454;53.396;-1.510;2022-12-07T11:44:04;3;2;
55591;PMS5003;41454;53.396;-1.510;2022-12-07T11:46:39;3;3;
55591;PMS5003;41454;53.396;-1.510;2022-12-07T11:49:13;2;2;
55591;PMS5003;41454;53.396;-1.510;2022-12-07T11:51:45;2;2;
55591;PMS5003;41454;53.396;-1.510;2022-12-07T11:54:19;1;1;
55591;PMS5003;41454;53.396;-1.510;2022-12-07T11:56:50;3;3;
55591;PMS5003;41454;53.396;-1.510;2022-12-07T11:59:22;4;2;
55591;PMS5003;41454;53.396;-1.510;2022-12-07T12:01:53;3;3;
55591;PMS5003;41454;53.396;-1.510;2022-12-07T12:04:32;1;1;
55591;PMS5003;41454;53.396;-1.510;2022-12-07T12:07:10;1;1;
55591;PMS5003;41454;53.396;-1.510;2022-12-07T12:09:44;2;2;
55591;PMS5003;41454;53.396;-1.510;2022-12-07T12:12:21;4;2;
55591;PMS5003;41454;53.396;-1.510;2022-12-07T12:15:18;1;1;
55591;PMS5003;41454;53.396;-1.510;2022-12-07T12:17:57;2;2;
55591;PMS5003;41454;53.396;-1.510;2022-12-07T12:20:39;2;2;
55591;PMS5003;41454;53.396;-1.510;2022-12-07T12:23:13;2;2;
55591;PMS5003;41454;53.396;-1.510;2022-12-07T12:25:44;0;0;
55591;PMS5003;41454;53.396;-1.510;2022-12-07T12:28:18;3;3;
55591;PMS5003;41454;53.396;-1.510;2022-12-07T12:31:08;4;4;
55591;PMS5003;41454;53.396;-1.510;2022-12-07T12:33:42;2;2;
55591;PMS5003;41454;53.396;-1.510;2022-12-07T12:36:20;3;2;
55591;PMS5003;41454;53.396;-1.510;2022-12-07T12:38:52;2;2;
55591;PMS5003;41454;53.396;-1.510;2022-12-07T12:42:17;2;2;
55591;PMS5003;41454;53.396;-1.510;2022-12-07T12:45:17;1;1;
55591;PMS5003;41454;53.396;-1.510;2022-12-07T12:48:01;1;1;
55591;PMS5003;41454;53.396;-1.510;2022-12-07T12:50:31;1;1;
55591;PMS5003;41454;53.396;-1.510;2022-12-07T12:53:02;2;2;
55591;PMS5003;41454;53.396;-1.510;2022-12-07T12:56:13;2;2;
55591;PMS5003;41454;53.396;-1.510;2022-12-07T12:59:31;3;2;
55591;PMS5003;41454;53.396;-1.510;2022-12-07T13:02:09;5;2;
55591;PMS5003;41454;53.396;-1.510;2022-12-07T13:04:49;2;2;
55591;PMS5003;41454;53.396;-1.510;2022-12-07T13:08:24;1;1;
55591;PMS5003;41454;53.396;-1.510;2022-12-07T13:10:51;2;2;
55591;PMS5003;41454;53.396;-1.510;2022-12-07T13:13:35;2;1;
55591;PMS5003;41454;53.396;-1.510;2022-12-07T13:16:37;1;1;
55591;PMS5003;41454;53.396;-1.510;2022-12-07T13:21:40;1;1;
55591;PMS5003;41454;53.396;-1.510;2022-12-07T13:24:08;2;2;
55591;PMS5003;41454;53.396;-1.510;2022-12-07T13:26:41;2;2;
55591;PMS5003;41454;53.396;-1.510;2022-12-07T13:29:11;1;1;
55591;PMS5003;41454;53.396;-1.510;2022-12-07T13:31:40;1;1;
55591;PMS5003;41454;53.396;-1.510;2022-12-07T13:34:42;2;2;
55591;PMS5003;41454;53.396;-1.510;2022-12-07T13:37:10;2;2;
55591;PMS5003;41454;53.396;-1.510;2022-12-07T13:42:46;2;2;
55591;PMS5003;41454;53.396;-1.510;2022-12-07T13:45:20;3;3;
55591;PMS5003;41454;53.396;-1.510;2022-12-07T13:47:52;2;2;
55591;PMS5003;41454;53.396;-1.510;2022-12-07T13:50:23;3;2;
55591;PMS5003;41454;53.396;-1.510;2022-12-07T13:52:54;3;3;
55591;PMS5003;41454;53.396;-1.510;2022-12-07T13:55:24;4;4;
55591;PMS5003;41454;53.396;-1.510;2022-12-07T13:57:52;3;3;
55591;PMS5003;41454;53.396;-1.510;2022-12-07T14:00:21;3;3;
55591;PMS5003;41454;53.396;-1.510;2022-12-07T14:02:55;4;3;
55591;PMS5003;41454;53.396;-1.510;2022-12-07T14:05:25;2;2;
55591;PMS5003;41454;53.396;-1.510;2022-12-07T14:07:55;4;4;
55591;PMS5003;41454;53.396;-1.510;2022-12-07T14:10:25;4;4;
55591;PMS5003;41454;53.396;-1.510;2022-12-07T14:12:54;5;5;
55591;PMS5003;41454;53.396;-1.510;2022-12-07T14:15:23;6;5;
55591;PMS5003;41454;53.396;-1.510;2022-12-07T14:17:54;7;7;
55591;PMS5003;41454;53.396;-1.510;2022-12-07T14:20:31;7;7;
55591;PMS5003;41454;53.396;-1.510;2022-12-07T14:23:02;6;6;
55591;PMS5003;41454;53.396;-1.510;2022-12-07T14:25:32;8;8;
55591;PMS5003;41454;53.396;-1.510;2022-12-07T14:28:00;7;7;
55591;PMS5003;41454;53.396;-1.510;2022-12-07T14:30:28;13;13;
55591;PMS5003;41454;53.396;-1.510;2022-12-07T14:32:57;14;13;
55591;PMS5003;41454;53.396;-1.510;2022-12-07T14:35:26;9;9;
55591;PMS5003;41454;53.396;-1.510;2022-12-07T14:37:55;11;9;
55591;PMS5003;41454;53.396;-1.510;2022-12-07T14:40:23;9;9;
55591;PMS5003;41454;53.396;-1.510;2022-12-07T14:42:52;11;11;
55591;PMS5003;41454;53.396;-1.510;2022-12-07T14:45:23;17;16;
55591;PMS5003;41454;53.396;-1.510;2022-12-07T14:47:51;14;14;
55591;PMS5003;41454;53.396;-1.510;2022-12-07T14:50:18;12;12;
55591;PMS5003;41454;53.396;-1.510;2022-12-07T14:52:48;12;12;
55591;PMS5003;41454;53.396;-1.510;2022-12-07T14:55:22;13;13;
55591;PMS5003;41454;53.396;-1.510;2022-12-07T14:57:51;14;13;
55591;PMS5003;41454;53.396;-1.510;2022-12-07T15:00:19;15;15;
55591;PMS5003;41454;53.396;-1.510;2022-12-07T15:02:48;15;15;
55591;PMS5003;41454;53.396;-1.510;2022-12-07T15:05:16;15;14;
55591;PMS5003;41454;53.396;-1.510;2022-12-07T15:07:44;14;14;
55591;PMS5003;41454;53.396;-1.510;2022-12-07T15:10:14;22;19;
55591;PMS5003;41454;53.396;-1.510;2022-12-07T15:12:43;19;17;
55591;PMS5003;41454;53.396;-1.510;2022-12-07T15:15:10;18;16;
55591;PMS5003;41454;53.396;-1.510;2022-12-07T15:17:37;18;16;
55591;PMS5003;41454;53.396;-1.510;2022-12-07T15:20:07;20;20;
55591;PMS5003;41454;53.396;-1.510;2022-12-07T15:22:37;23;20;
55591;PMS5003;41454;53.396;-1.510;2022-12-07T15:25:05;20;18;
55591;PMS5003;41454;53.396;-1.510;2022-12-07T15:27:33;16;16;
55591;PMS5003;41454;53.396;-1.510;2022-12-07T15:30:00;26;24;
55591;PMS5003;41454;53.396;-1.510;2022-12-07T15:32:27;29;28;
55591;PMS5003;41454;53.396;-1.510;2022-12-07T15:34:54;63;57;
55591;PMS5003;41454;53.396;-1.510;2022-12-07T15:37:21;47;46;
55591;PMS5003;41454;53.396;-1.510;2022-12-07T15:39:48;41;36;
55591;PMS5003;41454;53.396;-1.510;2022-12-07T15:42:16;28;22;
55591;PMS5003;41454;53.396;-1.510;2022-12-07T15:44:43;35;34;
55591;PMS5003;41454;53.396;-1.510;2022-12-07T15:47:10;25;25;
55591;PMS5003;41454;53.396;-1.510;2022-12-07T15:49:37;26;25;
55591;PMS5003;41454;53.396;-1.510;2022-12-07T15:52:04;22;18;
55591;PMS5003;41454;53.396;-1.510;2022-12-07T15:54:32;98;90;
55591;PMS5003;41454;53.396;-1.510;2022-12-07T15:56:59;33;32;
55591;PMS5003;41454;53.396;-1.510;2022-12-07T15:59:27;20;20;
55591;PMS5003;41454;53.396;-1.510;2022-12-07T16:01:55;34;33;
55591;PMS5003;41454;53.396;-1.510;2022-12-07T16:04:23;28;27;
55591;PMS5003;41454;53.396;-1.510;2022-12-07T16:06:50;44;38;
55591;PMS5003;41454;53.396;-1.510;2022-12-07T16:09:17;25;25;
55591;PMS5003;41454;53.396;-1.510;2022-12-07T16:11:45;32;29;
55591;PMS5003;41454;53.396;-1.510;2022-12-07T16:14:13;18;18;
55591;PMS5003;41454;53.396;-1.510;2022-12-07T16:16:40;17;17;
55591;PMS5003;41454;53.396;-1.510;2022-12-07T16:19:08;22;19;
55591;PMS5003;41454;53.396;-1.510;2022-12-07T16:21:36;18;18;
55591;PMS5003;41454;53.396;-1.510;2022-12-07T16:24:03;15;15;
55591;PMS5003;41454;53.396;-1.510;2022-12-07T16:26:32;19;17;
55591;PMS5003;41454;53.396;-1.510;2022-12-07T16:28:59;18;16;
55591;PMS5003;41454;53.396;-1.510;2022-12-07T16:31:27;18;18;
55591;PMS5003;41454;53.396;-1.510;2022-12-07T16:33:55;16;16;
55591;PMS5003;41454;53.396;-1.510;2022-12-07T16:36:24;18;15;
55591;PMS5003;41454;53.396;-1.510;2022-12-07T16:38:51;17;16;
55591;PMS5003;41454;53.396;-1.510;2022-12-07T16:41:18;18;15;
55591;PMS5003;41454;53.396;-1.510;2022-12-07T16:43:44;20;20;
55591;PMS5003;41454;53.396;-1.510;2022-12-07T16:46:12;21;20;
55591;PMS5003;41454;53.396;-1.510;2022-12-07T16:48:40;15;14;
55591;PMS5003;41454;53.396;-1.510;2022-12-07T16:51:08;17;14;
55591;PMS5003;41454;53.396;-1.510;2022-12-07T16:53:37;13;12;
55591;PMS5003;41454;53.396;-1.510;2022-12-07T16:56:09;9;9;
55591;PMS5003;41454;53.396;-1.510;2022-12-07T16:58:38;11;11;